Route Details

Aircraft Information
Group: North America Fleet
Types: B738, B752, B762, B763
Route Data
Distance: 518nm
Duration: 2h 00m
Origin METAR: KMIA 080053Z 07010KT 10SM SCT040 23/16 A3023 RMK AO2 SLP237 T02330156 $
Dest. METAR: KATL 080052Z 00000KT 10SM FEW200 SCT250 16/04 A3029 RMK AO2 SLP258 T01560044
Freight Data
(for Feb 8, 2023)
Load Factor:
30%
Manifested Cargo: 25,626lbs
Financial History
Total Freight: 231,132lbs
Average Load: 0lbs/flt
Fuel Used: 80,196lbs
Avg. Fuel Used: 0lbs/flt
Fuel Expense: $41,681
Avg. Fuel Expense: $0
Avg. Fuel Cost: $0/lbs
Total Gross Income: $542,678
Pilot Pay: $845
Total Expenses: $111,423
Total Revenue: $387,818
Average Revenue: $0

Capitol Logistics 424




KMIA
Miami International Airport
Miami, Florida
KATL
Hartsfield - Jackson Atlanta International Airport
Atlanta, Georgia

Activity Log

Date Flight Route Aircraft Duration
09/10/2022 CPX424 HURCN3 SMELZ Q116 JAWJA DCT DAWWN DCT BEORN GNDLF2 B763 1h 49m
07/03/2022 CPX450 VACAY1 STYMY Q77 SHRKS LAIRI LARZZ JJEDI2 B763 1h 34m
04/17/2022 CPX450 VACAY1 STYMY Q77 SHRKS LAIRI LARZZ JJEDI2 B752 1h 48m
02/15/2022 CPX450 VACAY1 STYMY Q77 SHRKS LAIRI LARZZ JJEDI2 B752 1h 37m
01/15/2022 CPX450 VACAY1 STYMY Q77 SHRKS LAIRI LARZZ JJEDI2 B752 1h 57m